createdAt,value
2019-01-23T00:00:30.811Z,0.40
2019-01-23T00:03:01.506Z,0.30
2019-01-23T00:05:32.278Z,0.40
2019-01-23T00:08:03.076Z,0.40
2019-01-23T00:10:34.186Z,0.40
2019-01-23T00:13:04.968Z,0.40
2019-01-23T00:15:35.706Z,0.40
2019-01-23T00:18:06.510Z,0.40
2019-01-23T00:20:37.195Z,0.40
2019-01-23T00:23:07.926Z,0.30
2019-01-23T00:25:39.658Z,0.40
2019-01-23T00:28:10.364Z,0.40
2019-01-23T00:30:41.115Z,0.40
2019-01-23T00:33:11.794Z,0.50
2019-01-23T00:35:42.565Z,0.40
2019-01-23T00:38:13.246Z,0.40
2019-01-23T00:40:43.981Z,0.40
2019-01-23T00:43:14.719Z,0.30
2019-01-23T00:45:47.012Z,0.30
2019-01-23T00:48:17.808Z,0.30
2019-01-23T00:50:48.582Z,0.30
2019-01-23T00:53:19.242Z,0.30
2019-01-23T00:55:49.973Z,0.40
2019-01-23T00:58:20.708Z,0.40
2019-01-23T01:00:51.550Z,0.40
2019-01-23T01:03:22.222Z,0.40
2019-01-23T01:05:52.958Z,0.30
2019-01-23T01:08:23.896Z,0.40
2019-01-23T01:10:54.758Z,0.40
2019-01-23T01:13:25.486Z,0.30
2019-01-23T01:15:56.355Z,0.30
2019-01-23T01:18:27.058Z,0.20
2019-01-23T01:20:57.825Z,0.20
2019-01-23T01:23:28.628Z,0.30
2019-01-23T01:25:59.451Z,0.30
2019-01-23T01:28:30.203Z,0.30
2019-01-23T01:31:01.009Z,0.30
2019-01-23T01:33:34.007Z,0.20
2019-01-23T01:36:04.397Z,0.30
2019-01-23T01:38:35.141Z,0.30
2019-01-23T01:41:06.019Z,0.30
2019-01-23T01:43:36.746Z,0.30
2019-01-23T01:46:07.504Z,0.30
2019-01-23T01:48:38.451Z,0.40
2019-01-23T01:51:09.200Z,0.40
2019-01-23T02:09:27.404Z,0.30
2019-01-23T02:11:59.906Z,0.30
2019-01-23T02:15:28.871Z,0.30
2019-01-23T02:19:04.259Z,0.30
2019-01-23T02:21:35.194Z,0.30
2019-01-23T02:24:35.878Z,0.30
2019-01-23T02:27:16.125Z,0.40
2019-01-23T02:30:05.209Z,0.40
2019-01-23T02:32:51.206Z,0.40
2019-01-23T02:35:23.545Z,0.40
2019-01-23T02:37:54.968Z,0.30
2019-01-23T02:41:15.064Z,0.40
2019-01-23T02:43:52.581Z,0.40
2019-01-23T02:46:38.847Z,0.40
2019-01-23T02:49:09.739Z,0.40
2019-01-23T02:51:40.772Z,0.40
2019-01-23T02:55:15.456Z,0.40
2019-01-23T02:57:57.184Z,0.50
2019-01-23T03:00:31.792Z,0.50
2019-01-23T03:03:08.672Z,0.50
2019-01-23T03:05:44.466Z,0.60
2019-01-23T03:08:52.375Z,0.50
2019-01-23T03:11:23.300Z,0.50
2019-01-23T03:14:25.377Z,0.50
2019-01-23T03:18:04.463Z,0.50
2019-01-23T03:20:44.266Z,0.50
2019-01-23T03:26:27.877Z,0.50
2019-01-23T03:29:43.572Z,0.40
2019-01-23T03:37:07.715Z,0.40
2019-01-23T03:40:36.168Z,0.40
2019-01-23T03:43:16.537Z,0.30
2019-01-23T03:46:35.375Z,0.30
2019-01-23T03:49:04.569Z,0.30
2019-01-23T03:51:35.434Z,0.30
2019-01-23T03:54:06.420Z,0.20
2019-01-23T03:56:37.191Z,0.30
2019-01-23T03:59:08.987Z,0.20
2019-01-23T04:01:40.873Z,0.30
2019-01-23T04:04:22.566Z,0.30
2019-01-23T04:06:55.311Z,0.20
2019-01-23T04:13:48.272Z,0.10
2019-01-23T04:20:17.246Z,0.20
2019-01-23T04:22:53.113Z,0.10
2019-01-23T04:32:57.272Z,0.00
2019-01-23T04:35:53.303Z,0.00
2019-01-23T04:38:21.046Z,0.00
2019-01-23T04:40:52.043Z,0.00
2019-01-23T04:43:23.227Z,0.00
2019-01-23T04:45:54.095Z,0.00
2019-01-23T04:48:25.027Z,0.00
2019-01-23T04:51:26.945Z,0.00
2019-01-23T04:53:57.994Z,0.00
2019-01-23T04:56:28.864Z,0.00
2019-01-23T04:58:59.655Z,0.00
2019-01-23T05:01:30.519Z,-0.10
2019-01-23T05:04:01.324Z,0.00
2019-01-23T05:06:32.224Z,0.00
2019-01-23T05:09:03.835Z,0.00
2019-01-23T05:11:34.898Z,-0.10
2019-01-23T05:14:06.818Z,-0.10
2019-01-23T05:16:42.033Z,-0.10
2019-01-23T05:23:19.741Z,-0.10
2019-01-23T05:26:18.801Z,-0.10
2019-01-23T05:28:53.027Z,-0.10
2019-01-23T05:31:34.323Z,-0.10
2019-01-23T05:54:08.232Z,-0.30
2019-01-23T05:56:39.049Z,-0.40
2019-01-23T05:59:09.826Z,-0.40
2019-01-23T06:01:44.145Z,-0.40
2019-01-23T06:04:15.091Z,-0.50
2019-01-23T06:06:50.674Z,-0.60
2019-01-23T06:09:23.458Z,-0.60
2019-01-23T06:11:56.866Z,-0.70
2019-01-23T06:14:27.779Z,-0.70
2019-01-23T06:17:27.915Z,-0.70
2019-01-23T06:19:58.863Z,-0.80
2019-01-23T06:22:32.459Z,-0.80
2019-01-23T06:25:07.347Z,-0.90
2019-01-23T06:27:39.817Z,-0.90
2019-01-23T06:30:14.820Z,-0.90
2019-01-23T06:32:45.748Z,-0.90
2019-01-23T06:51:42.546Z,-1.10
2019-01-23T06:54:24.542Z,-1.00
2019-01-23T06:56:55.820Z,-1.00
2019-01-23T06:59:26.898Z,-1.10
2019-01-23T07:02:23.841Z,-1.20
2019-01-23T07:05:06.957Z,-1.20
2019-01-23T07:07:42.261Z,-1.20
2019-01-23T07:10:20.271Z,-1.20
2019-01-23T07:12:51.107Z,-1.20
2019-01-23T07:15:23.553Z,-1.20
2019-01-23T07:17:54.624Z,-1.30
2019-01-23T07:20:27.283Z,-1.20
2019-01-23T07:22:58.343Z,-1.20
2019-01-23T07:30:11.310Z,-1.30
2019-01-23T07:32:48.539Z,-1.20
2019-01-23T07:35:20.187Z,-1.30
2019-01-23T07:38:12.217Z,-1.30
2019-01-23T07:40:43.109Z,-1.30
2019-01-23T07:43:14.035Z,-1.40
2019-01-23T07:45:44.985Z,-1.40
2019-01-23T07:48:17.087Z,-1.50
2019-01-23T07:54:49.147Z,-1.60
2019-01-23T07:57:20.632Z,-1.50
2019-01-23T07:59:52.670Z,-1.40
2019-01-23T08:02:27.890Z,-1.50
2019-01-23T08:04:58.828Z,-1.40
2019-01-23T08:07:29.790Z,-1.30
2019-01-23T08:10:00.734Z,-1.40
2019-01-23T08:12:31.789Z,-1.30
2019-01-23T08:15:02.862Z,-1.40
2019-01-23T08:21:21.158Z,-1.40
2019-01-23T08:23:51.954Z,-1.40
2019-01-23T08:26:22.797Z,-1.20
2019-01-23T08:28:53.593Z,-1.20
2019-01-23T08:31:24.420Z,-1.20
2019-01-23T08:33:55.298Z,-1.10
2019-01-23T08:36:26.115Z,-1.10
2019-01-23T08:38:59.415Z,-1.00
2019-01-23T08:41:30.177Z,-1.00
2019-01-23T08:45:15.679Z,-0.80
2019-01-23T08:52:17.413Z,-0.50
2019-01-23T08:56:03.705Z,-0.40
2019-01-23T09:06:24.854Z,-0.30
2019-01-23T09:09:54.035Z,-0.20
2019-01-23T09:12:25.406Z,-0.20
2019-01-23T09:14:56.228Z,0.00
2019-01-23T09:17:26.951Z,0.00
2019-01-23T09:19:57.667Z,0.10
2019-01-23T09:22:28.465Z,0.10
2019-01-23T09:29:12.055Z,0.20
2019-01-23T09:32:04.456Z,0.30
2019-01-23T09:35:04.114Z,0.30
2019-01-23T09:38:59.560Z,0.40
2019-01-23T09:55:51.570Z,1.10
2019-01-23T09:58:23.047Z,1.40
2019-01-23T10:01:33.029Z,1.60
2019-01-23T10:04:48.438Z,1.60
2019-01-23T10:07:20.166Z,1.50
2019-01-23T10:10:45.879Z,1.50
2019-01-23T10:13:16.667Z,1.50
2019-01-23T10:16:10.846Z,1.40
2019-01-23T10:18:41.662Z,1.40
2019-01-23T10:21:57.627Z,1.40
2019-01-23T10:26:13.297Z,1.40
2019-01-23T10:30:27.620Z,1.40
2019-01-23T10:33:00.910Z,1.40
2019-01-23T10:35:33.240Z,1.40
2019-01-23T10:38:04.109Z,1.40
2019-01-23T10:40:35.152Z,1.40
2019-01-23T10:43:05.889Z,1.50
2019-01-23T10:45:36.934Z,1.50
2019-01-23T10:48:07.725Z,1.50
2019-01-23T10:50:38.677Z,1.40
2019-01-23T10:53:09.486Z,1.40
2019-01-23T10:55:44.343Z,1.40
2019-01-23T10:58:15.214Z,1.50
2019-01-23T11:00:46.029Z,1.50
2019-01-23T11:03:23.463Z,1.50
2019-01-23T11:05:54.273Z,1.50
2019-01-23T11:12:16.933Z,1.50
2019-01-23T11:14:48.134Z,1.60
2019-01-23T11:17:50.432Z,1.50
2019-01-23T11:22:01.850Z,1.50
2019-01-23T11:25:13.253Z,1.40
2019-01-23T11:28:30.007Z,1.30
2019-01-23T11:37:57.577Z,1.30
2019-01-23T11:41:31.771Z,1.30
2019-01-23T11:44:07.797Z,1.30
2019-01-23T11:52:28.209Z,1.20
2019-01-23T11:54:35.952Z,1.20
2019-01-23T11:57:20.475Z,1.20
2019-01-23T12:00:00.103Z,1.20
2019-01-23T12:07:07.037Z,1.10
2019-01-23T12:09:48.226Z,1.10
2019-01-23T12:12:18.971Z,1.10
2019-01-23T12:14:54.639Z,1.10
2019-01-23T12:17:28.291Z,1.20
2019-01-23T12:20:00.823Z,1.10
2019-01-23T12:23:05.679Z,1.10
2019-01-23T12:25:34.619Z,1.10
2019-01-23T12:28:05.513Z,1.00
2019-01-23T12:35:43.411Z,1.10
2019-01-23T12:38:18.704Z,1.00
2019-01-23T12:40:49.567Z,1.00
2019-01-23T12:43:20.379Z,1.00
2019-01-23T12:47:35.179Z,1.00
2019-01-23T13:08:43.033Z,1.00
2019-01-23T13:12:40.537Z,1.00
2019-01-23T13:15:23.236Z,0.90
2019-01-23T13:17:59.423Z,0.90
2019-01-23T13:20:30.274Z,0.90
2019-01-23T13:23:51.158Z,0.90
2019-01-23T13:26:44.613Z,0.80
2019-01-23T13:34:46.762Z,0.80
2019-01-23T13:37:22.548Z,0.90
2019-01-23T13:39:55.109Z,0.90
2019-01-23T13:42:30.324Z,0.90
2019-01-23T13:45:06.998Z,0.90
2019-01-23T13:47:37.973Z,0.90
2019-01-23T13:50:09.863Z,0.80
2019-01-23T13:53:04.563Z,0.90
2019-01-23T13:55:38.702Z,0.90
2019-01-23T13:58:14.118Z,0.90
2019-01-23T14:00:54.638Z,0.80
2019-01-23T14:03:51.363Z,0.80
2019-01-23T14:06:18.484Z,0.80
2019-01-23T14:08:57.892Z,0.80
2019-01-23T14:11:37.948Z,0.80
2019-01-23T14:14:10.636Z,0.70
2019-01-23T14:16:49.457Z,0.80
2019-01-23T14:19:30.447Z,0.90
2019-01-23T14:22:02.533Z,1.00
2019-01-23T14:24:41.725Z,1.10
2019-01-23T14:27:14.423Z,1.20
2019-01-23T14:35:58.839Z,1.30
2019-01-23T14:38:38.818Z,1.40
2019-01-23T14:41:09.779Z,1.60
2019-01-23T14:43:40.615Z,1.60
2019-01-23T14:46:11.382Z,1.60
2019-01-23T14:48:42.590Z,1.60
2019-01-23T14:51:13.554Z,1.60
2019-01-23T14:53:44.353Z,1.60
2019-01-23T14:56:15.362Z,1.50
2019-01-23T14:58:46.321Z,1.50
2019-01-23T15:01:17.081Z,1.50
2019-01-23T15:03:47.901Z,1.40
2019-01-23T15:06:18.617Z,1.40
2019-01-23T15:08:49.348Z,1.50
2019-01-23T15:11:20.084Z,1.40
2019-01-23T15:13:50.877Z,1.30
2019-01-23T15:16:21.709Z,1.30
2019-01-23T15:18:52.498Z,1.20
2019-01-23T15:21:23.319Z,1.30
2019-01-23T15:23:54.123Z,1.20
2019-01-23T15:26:24.802Z,1.20
2019-01-23T15:28:55.561Z,1.20
2019-01-23T15:31:26.312Z,1.20
2019-01-23T15:33:57.063Z,1.10
2019-01-23T15:36:27.862Z,1.20
2019-01-23T15:38:58.631Z,1.10
2019-01-23T15:41:29.429Z,1.10
2019-01-23T15:44:00.179Z,1.20
2019-01-23T15:46:31.014Z,1.10
2019-01-23T15:49:01.862Z,0.90
2019-01-23T15:51:32.645Z,1.00
2019-01-23T15:54:03.471Z,0.90
2019-01-23T15:56:34.251Z,0.80
2019-01-23T15:59:05.117Z,0.80
2019-01-23T16:01:35.940Z,0.80
2019-01-23T16:04:08.432Z,0.80
2019-01-23T16:06:39.684Z,0.80
2019-01-23T16:09:10.491Z,0.80
2019-01-23T16:11:45.923Z,0.80
2019-01-23T16:14:20.550Z,0.70
2019-01-23T16:16:54.065Z,0.80
2019-01-23T16:19:25.330Z,0.70
2019-01-23T16:21:58.613Z,0.70
2019-01-23T16:24:32.475Z,0.60
2019-01-23T16:27:03.701Z,0.60
2019-01-23T16:29:35.530Z,0.60
2019-01-23T16:32:08.118Z,0.60
2019-01-23T16:34:41.503Z,0.60
2019-01-23T16:37:15.366Z,0.60
2019-01-23T16:39:46.227Z,0.70
2019-01-23T16:42:18.226Z,0.70
2019-01-23T16:44:51.153Z,0.60
2019-01-23T16:47:22.143Z,0.60
2019-01-23T16:49:53.173Z,0.60
2019-01-23T16:52:24.074Z,0.60
2019-01-23T16:54:55.101Z,0.60
2019-01-23T16:57:26.073Z,0.60
2019-01-23T16:59:56.808Z,0.60
2019-01-23T17:02:27.562Z,0.50
2019-01-23T17:04:58.338Z,0.60
2019-01-23T17:07:29.165Z,0.50
2019-01-23T17:09:59.971Z,0.60
2019-01-23T17:12:30.621Z,0.60
2019-01-23T17:15:01.406Z,0.60
2019-01-23T17:17:32.081Z,0.50
2019-01-23T17:20:03.870Z,0.50
2019-01-23T17:22:36.278Z,0.60
2019-01-23T17:25:08.673Z,0.60
2019-01-23T17:27:39.553Z,0.60
2019-01-23T17:30:11.063Z,0.50
2019-01-23T17:32:45.664Z,0.50
2019-01-23T17:35:15.436Z,0.50
2019-01-23T17:37:46.190Z,0.50
2019-01-23T17:40:18.658Z,0.50
2019-01-23T17:42:49.497Z,0.50
2019-01-23T17:45:25.567Z,0.50
2019-01-23T17:47:57.998Z,0.60
2019-01-23T17:50:28.742Z,0.60
2019-01-23T17:52:59.492Z,0.60
2019-01-23T17:55:36.174Z,0.60
2019-01-23T17:58:09.015Z,0.50
2019-01-23T18:01:00.272Z,0.50
2019-01-23T18:03:32.699Z,0.50
2019-01-23T18:06:04.425Z,0.50
2019-01-23T18:08:35.215Z,0.40
2019-01-23T18:11:05.911Z,0.40
2019-01-23T18:13:36.782Z,0.40
2019-01-23T18:16:11.952Z,0.40
2019-01-23T18:18:42.726Z,0.40
2019-01-23T18:21:13.591Z,0.40
2019-01-23T18:23:44.464Z,0.40
2019-01-23T18:26:15.273Z,0.40
2019-01-23T18:28:48.530Z,0.30
2019-01-23T18:31:40.845Z,0.30
2019-01-23T18:34:51.170Z,0.40
2019-01-23T18:37:52.749Z,0.30
2019-01-23T18:41:17.631Z,0.30
2019-01-23T18:44:42.089Z,0.30
2019-01-23T18:47:49.569Z,0.40
2019-01-23T18:50:57.609Z,0.40
2019-01-23T18:53:30.043Z,0.40
2019-01-23T18:56:00.798Z,0.40
2019-01-23T18:58:31.810Z,0.40
2019-01-23T19:01:02.884Z,0.30
2019-01-23T19:03:33.941Z,0.40
2019-01-23T19:06:05.227Z,0.50
2019-01-23T19:08:37.538Z,0.50
2019-01-23T19:11:33.849Z,0.40
2019-01-23T19:14:24.580Z,0.50
2019-01-23T19:16:59.308Z,0.50
2019-01-23T19:19:30.026Z,0.50
2019-01-23T19:22:00.845Z,0.50
2019-01-23T19:24:31.846Z,0.50
2019-01-23T19:27:02.735Z,0.40
2019-01-23T19:29:33.449Z,0.40
2019-01-23T19:32:04.336Z,0.30
2019-01-23T19:34:35.203Z,0.40
2019-01-23T19:37:06.057Z,0.30
2019-01-23T19:39:36.780Z,0.30
2019-01-23T19:42:07.603Z,0.30
2019-01-23T19:44:38.514Z,0.30
2019-01-23T19:47:09.409Z,0.30
2019-01-23T19:49:40.314Z,0.30
2019-01-23T19:52:11.058Z,0.40
2019-01-23T19:54:41.845Z,0.30
2019-01-23T19:57:12.600Z,0.30
2019-01-23T19:59:44.937Z,0.30
2019-01-23T20:02:18.564Z,0.40
2019-01-23T20:04:49.400Z,0.30
2019-01-23T20:07:20.213Z,0.30
2019-01-23T20:09:51.010Z,0.40
2019-01-23T20:12:21.842Z,0.50
2019-01-23T20:14:52.664Z,0.40
2019-01-23T20:17:23.802Z,0.30
2019-01-23T20:19:54.796Z,0.20
2019-01-23T20:22:25.937Z,0.20
2019-01-23T20:24:57.302Z,0.30
2019-01-23T20:27:28.545Z,0.30
2019-01-23T20:29:59.622Z,0.30
2019-01-23T20:32:32.127Z,0.30
2019-01-23T20:35:03.162Z,0.40
2019-01-23T20:37:52.254Z,0.30
2019-01-23T20:40:19.510Z,0.30
2019-01-23T20:42:50.970Z,0.30
2019-01-23T20:45:21.808Z,0.30
2019-01-23T20:47:52.597Z,0.20
2019-01-23T20:50:28.609Z,0.10
2019-01-23T20:53:00.381Z,0.10
2019-01-23T20:55:31.138Z,0.10
2019-01-23T20:58:02.590Z,0.10
2019-01-23T21:00:34.022Z,0.10
2019-01-23T21:03:05.396Z,0.10
2019-01-23T21:05:37.480Z,0.10
2019-01-23T21:08:08.247Z,0.10
2019-01-23T21:10:39.078Z,0.00
2019-01-23T21:13:09.816Z,0.00
2019-01-23T21:15:40.508Z,-0.10
2019-01-23T21:18:11.575Z,-0.10
2019-01-23T21:20:46.182Z,-0.10
2019-01-23T21:23:17.290Z,0.00
2019-01-23T21:25:48.097Z,0.00
2019-01-23T21:28:19.279Z,0.00
2019-01-23T21:30:51.635Z,0.00
2019-01-23T21:33:23.005Z,-0.10
2019-01-23T21:35:54.861Z,-0.10
2019-01-23T21:46:35.874Z,-0.20
2019-01-23T21:49:06.695Z,-0.20
2019-01-23T21:51:39.063Z,-0.20
2019-01-23T21:54:10.050Z,-0.10
2019-01-23T21:56:40.859Z,-0.20
2019-01-23T21:59:11.701Z,-0.20
2019-01-23T22:01:42.957Z,-0.10
2019-01-23T22:04:14.057Z,-0.20
2019-01-23T22:06:44.948Z,-0.20
2019-01-23T22:09:15.900Z,-0.20
2019-01-23T22:11:46.634Z,-0.20
2019-01-23T22:14:18.060Z,-0.20
2019-01-23T22:17:11.264Z,-0.20
2019-01-23T22:20:10.722Z,-0.10
2019-01-23T22:22:41.541Z,-0.10
2019-01-23T22:25:13.756Z,-0.20
2019-01-23T22:27:44.531Z,-0.20
2019-01-23T22:30:18.373Z,-0.20
2019-01-23T22:32:49.477Z,-0.20
2019-01-23T22:35:20.237Z,-0.20
2019-01-23T22:37:50.947Z,-0.20
2019-01-23T22:40:21.767Z,-0.30
2019-01-23T22:42:52.597Z,-0.30
2019-01-23T22:45:23.354Z,-0.30
2019-01-23T22:47:54.092Z,-0.30
2019-01-23T22:50:28.889Z,-0.30
2019-01-23T22:52:59.646Z,-0.30
2019-01-23T22:55:30.653Z,-0.30
2019-01-23T22:58:01.435Z,-0.30
2019-01-23T23:01:05.857Z,-0.20
2019-01-23T23:03:36.717Z,-0.30
2019-01-23T23:06:07.499Z,-0.40
2019-01-23T23:08:39.871Z,-0.40
2019-01-23T23:11:10.629Z,-0.40
2019-01-23T23:13:41.372Z,-0.30
2019-01-23T23:16:12.356Z,-0.30
2019-01-23T23:18:43.945Z,-0.30
2019-01-23T23:21:16.536Z,-0.20
2019-01-23T23:23:47.335Z,-0.30
2019-01-23T23:26:18.151Z,-0.30
2019-01-23T23:28:48.926Z,-0.30
2019-01-23T23:31:20.773Z,-0.40
2019-01-23T23:33:51.646Z,-0.50
2019-01-23T23:37:41.716Z,-0.50
2019-01-23T23:40:12.777Z,-0.50
2019-01-23T23:42:43.710Z,-0.50
2019-01-23T23:45:14.674Z,-0.50
2019-01-23T23:47:45.497Z,-0.50
2019-01-23T23:50:16.821Z,-0.50
2019-01-23T23:52:47.541Z,-0.60
2019-01-23T23:55:19.918Z,-0.60
2019-01-23T23:57:50.655Z,-0.60
